HTBU

Bukoba Airport

Airport
ICAO code
HTBU
IATA Code
BKZ
Summary
ICAO Region
AFI
ICAO Territory
Location

Bukoba, Kagera Region

Serving
Bukoba
Elevation
3766 ft
Coordinates
1° 19' 50" S , 31° 49' 10" E
KCC
Aw
Metar
Observation
HTBU 151000Z 08006KT 9999 SCT017 FEW019 BKN090 25/20 Q1017
Station
Bukoba
Date/Time
2022-08-15 10:00:00
Wind direction
80°
Wind speed
06 kts
Lowest cloud amount
scattered clouds
Temperature
25°C
Dew point
20°C
Humidity
73%
QNH
1017 hPa
Weather condition
n/a

Bukoba Airport is an airport in northwestern Tanzania serving the town of Bukoba and the surrounding Kagera Region. It is adjacent to Lake Victoria.

Climatology

Tropical Savanna climate (Köppen climate classification Aw)

Airport map

Aerial View

SKYbrary Partners:

Safety knowledge contributed by: